Decoded Metar for VYYY (YANGON in MYANMAR) (IATA:RGN) | Meteo·Mobile Aviation Weather
aviador You're here:

VYYY Decoded Metar

YANGON in MYANMAR
Report Time2019-07-22 15:30:00
UTC Time2019-07-22 15:49:51
Flight Rules mvfr MVFR
Wind190° at 04 kt
W.Decomp.*RWY 21: 3.8 kt HW 1.3 kt LCW
Visibility6000 m
Phenomena:N/A
Clouds:Broken 014 Hf
Few CB 020 Hf
Broken 100 Hf
Expected CloudBase > 400 ft AGL from Temp-Dew spread
Ceiling1,400 ft
Temp26°C (ISA +11)
Dew Point25°C (94% RH)
QNH1007 hPa
Density Alt2,021 ft
Elevation108 ft
Report Wrong Elevation
Raw Report
VYYY 221530Z 19004KT 6000 BKN014 FEW020CB BKN100 26/25 Q1007
NOSIG=

Extra information for VYYY:More info

Metar Taf Metar & Taf Last 4 Metars F.Rules Stats Wind Profile Meteogram Temp Stats Airport Information Weather charts Add Link Nearby VenuesMetar ALERT Operation Metar Decoded Social comments